Time;durP1;ratioP1;P1;durP2;ratioP2;P2;SDS_P1;SDS_P2;PMS_P1;PMS_P2;Temp;Humidity;BMP_temperature;BMP_pressure;BME280_temperature;BME280_humidity;BME280_pressure;Samples;Min_cycle;Max_cycle;Signal;HPM_P1;HPM_P2
2023/05/21 00:00:01;;;;;;;3.58;2.40;;;17.90;96.00;;;;;;5003646;28;20305;-33
2023/05/21 00:02:30;;;;;;;3.70;2.83;;;17.90;96.10;;;;;;5003573;28;20220;-33
2023/05/21 00:04:57;;;;;;;4.43;2.58;;;17.80;96.10;;;;;;5003506;28;20688;-33
2023/05/21 00:07:31;;;;;;;3.78;2.80;;;17.80;96.10;;;;;;5000732;28;20202;-33
2023/05/21 00:09:59;;;;;;;3.25;2.63;;;17.80;96.10;;;;;;5004849;28;20540;-33
2023/05/21 00:12:26;;;;;;;4.00;2.97;;;17.80;96.20;;;;;;5003588;28;20256;-33
2023/05/21 00:14:56;;;;;;;3.15;2.85;;;17.70;96.10;;;;;;4994516;28;20209;-33
2023/05/21 00:17:25;;;;;;;3.50;2.60;;;17.70;96.10;;;;;;4988866;28;20206;-33
2023/05/21 00:19:58;;;;;;;3.85;3.00;;;17.70;96.10;;;;;;4981966;28;20210;-33
2023/05/21 00:22:32;;;;;;;3.83;2.80;;;17.60;96.10;;;;;;4985625;28;20687;-33
2023/05/21 00:24:59;;;;;;;3.45;2.45;;;17.60;96.20;;;;;;4982570;28;20611;-33
2023/05/21 00:27:31;;;;;;;4.45;3.03;;;17.50;96.20;;;;;;4984964;28;20210;-33
2023/05/21 00:30:00;;;;;;;3.40;2.78;;;17.50;96.30;;;;;;4989765;28;20223;-33
2023/05/21 00:32:33;;;;;;;3.40;2.70;;;17.50;96.30;;;;;;4985035;28;20202;-33
2023/05/21 00:35:00;;;;;;;3.10;2.80;;;17.40;96.20;;;;;;4982563;28;20310;-33
2023/05/21 00:37:33;;;;;;;3.72;2.70;;;17.40;96.30;;;;;;4984041;28;20875;-33
2023/05/21 00:40:01;;;;;;;3.47;2.90;;;17.40;96.20;;;;;;4983535;28;20225;-33
2023/05/21 00:42:29;;;;;;;3.15;2.85;;;17.30;96.20;;;;;;4983533;28;20222;-33
2023/05/21 00:44:59;;;;;;;2.70;2.50;;;17.30;96.20;;;;;;4993355;28;20291;-33
2023/05/21 00:47:28;;;;;;;3.88;2.53;;;17.20;96.30;;;;;;4979995;28;20215;-34
2023/05/21 00:49:56;;;;;;;3.35;2.72;;;17.20;96.30;;;;;;4996132;28;20216;-34
2023/05/21 00:52:25;;;;;;;4.88;2.92;;;17.20;96.30;;;;;;4993027;28;20220;-34
2023/05/21 00:54:55;;;;;;;3.45;3.10;;;17.20;96.20;;;;;;4990865;28;20659;-34
2023/05/21 00:57:25;;;;;;;5.95;2.58;;;17.20;96.30;;;;;;4982532;28;20250;-33
2023/05/21 00:59:57;;;;;;;2.83;2.63;;;17.10;96.20;;;;;;4988321;28;20532;-33
2023/05/21 01:02:27;;;;;;;3.00;2.70;;;17.10;96.20;;;;;;4997164;28;20590;-33
2023/05/21 01:04:59;;;;;;;5.43;3.17;;;17.00;96.40;;;;;;4990641;28;20229;-34
2023/05/21 01:07:33;;;;;;;4.25;2.67;;;17.00;96.40;;;;;;4991853;28;20214;-33
2023/05/21 01:10:09;;;;;;;7.90;2.97;;;17.00;96.40;;;;;;4997705;28;20711;-34
2023/05/21 01:12:38;;;;;;;3.72;2.97;;;17.00;96.50;;;;;;4999432;28;20222;-33
2023/05/21 01:15:07;;;;;;;3.55;3.00;;;17.00;96.40;;;;;;4984734;28;20214;-33
2023/05/21 01:17:34;;;;;;;5.07;2.80;;;16.90;96.70;;;;;;4992972;28;20637;-34
2023/05/21 01:20:08;;;;;;;3.85;2.92;;;16.90;96.50;;;;;;4999212;28;20214;-33
2023/05/21 01:22:57;;;;;;;4.22;2.88;;;16.80;96.80;;;;;;4998275;28;20213;-33
2023/05/21 01:25:24;;;;;;;3.55;2.83;;;16.70;97.30;;;;;;4998520;28;20616;-34
2023/05/21 01:27:53;;;;;;;5.00;3.05;;;16.70;96.50;;;;;;4998939;28;20205;-34
2023/05/21 01:30:24;;;;;;;3.88;2.70;;;16.70;96.70;;;;;;4984123;28;20526;-34
2023/05/21 01:32:54;;;;;;;3.85;2.70;;;16.60;96.40;;;;;;4982308;28;20229;-33
2023/05/21 01:35:27;;;;;;;3.85;2.80;;;16.60;96.60;;;;;;4986039;28;20216;-33
2023/05/21 01:38:01;;;;;;;4.57;3.47;;;16.50;96.70;;;;;;4986215;28;20214;-33
2023/05/21 01:40:38;;;;;;;5.53;3.28;;;16.50;96.70;;;;;;4987899;28;21044;-34
2023/05/21 01:43:08;;;;;;;3.22;2.75;;;16.40;96.70;;;;;;5002876;28;20216;-33
2023/05/21 01:45:38;;;;;;;4.25;2.90;;;16.40;96.50;;;;;;4991641;28;20767;-33
2023/05/21 01:48:07;;;;;;;4.78;3.05;;;16.30;96.70;;;;;;4982407;28;20293;-33
2023/05/21 01:50:41;;;;;;;3.97;3.08;;;16.30;96.40;;;;;;4982337;28;20232;-33
2023/05/21 01:53:13;;;;;;;3.55;3.20;;;16.30;96.50;;;;;;4984438;28;20198;-34
2023/05/21 01:55:44;;;;;;;3.97;3.42;;;16.20;96.60;;;;;;4993509;28;20284;-34
2023/05/21 01:58:12;;;;;;;3.72;3.28;;;16.20;96.60;;;;;;4990229;28;20226;-34
2023/05/21 02:00:39;;;;;;;4.15;3.35;;;16.20;96.80;;;;;;4983301;28;20751;-34
2023/05/21 02:03:09;;;;;;;5.38;3.15;;;16.10;96.80;;;;;;4984218;28;20210;-34
2023/05/21 02:05:36;;;;;;;3.72;3.25;;;16.10;96.50;;;;;;4981791;28;20234;-34
2023/05/21 02:08:07;;;;;;;4.35;3.10;;;16.10;96.80;;;;;;4982518;28;20214;-34
2023/05/21 02:10:37;;;;;;;4.03;3.47;;;16.00;96.80;;;;;;4984139;28;20198;-34
2023/05/21 02:13:04;;;;;;;4.05;3.03;;;16.00;96.70;;;;;;4995313;28;20190;-33
2023/05/21 02:15:33;;;;;;;5.00;3.45;;;16.00;96.80;;;;;;4992274;28;20221;-33
2023/05/21 02:18:03;;;;;;;4.68;3.20;;;16.00;96.60;;;;;;4990243;28;20703;-33
2023/05/21 02:20:31;;;;;;;4.40;3.20;;;15.90;96.60;;;;;;4981654;28;20218;-33
2023/05/21 02:23:00;;;;;;;4.43;3.20;;;15.90;96.60;;;;;;4988061;28;20221;-33
2023/05/21 02:25:32;;;;;;;3.35;3.05;;;15.90;97.00;;;;;;4995903;28;20226;-33
2023/05/21 02:28:01;;;;;;;6.00;3.58;;;15.90;96.80;;;;;;4990442;28;20197;-33
2023/05/21 02:30:28;;;;;;;4.00;3.03;;;15.90;96.80;;;;;;4985090;28;20210;-33
2023/05/21 02:32:58;;;;;;;4.28;3.13;;;15.80;96.80;;;;;;4985795;28;20596;-33
2023/05/21 02:35:25;;;;;;;3.88;3.33;;;15.80;97.00;;;;;;4988266;28;20225;-33
2023/05/21 02:37:57;;;;;;;4.45;3.45;;;15.80;96.70;;;;;;4992203;28;20202;-33
2023/05/21 02:40:25;;;;;;;4.22;3.00;;;15.80;96.70;;;;;;4985879;28;20605;-33
2023/05/21 02:42:52;;;;;;;4.97;3.50;;;15.80;96.70;;;;;;4983098;28;20217;-33
2023/05/21 02:45:20;;;;;;;4.03;3.20;;;15.80;96.80;;;;;;4986712;28;20329;-33
2023/05/21 02:47:49;;;;;;;4.82;2.70;;;15.80;96.80;;;;;;4985640;28;20600;-33
2023/05/21 02:50:16;;;;;;;4.93;3.30;;;15.70;96.90;;;;;;4984817;28;20202;-33
2023/05/21 02:52:46;;;;;;;3.83;3.00;;;15.70;96.80;;;;;;4976664;28;20210;-33
2023/05/21 02:55:15;;;;;;;3.40;2.90;;;15.70;96.80;;;;;;4988993;28;20218;-33
2023/05/21 02:57:47;;;;;;;3.75;3.22;;;15.70;97.00;;;;;;4985213;28;20234;-33
2023/05/21 03:00:17;;;;;;;4.47;3.30;;;15.70;96.80;;;;;;4986272;28;20642;-33
2023/05/21 03:02:44;;;;;;;4.40;3.50;;;15.70;96.80;;;;;;4985557;28;20210;-33
2023/05/21 03:05:14;;;;;;;4.75;3.22;;;15.60;96.80;;;;;;4986241;28;20598;-33
2023/05/21 03:07:43;;;;;;;4.38;3.10;;;15.70;96.90;;;;;;4987204;28;20210;-33
2023/05/21 03:10:13;;;;;;;5.82;3.40;;;15.60;96.80;;;;;;4996532;28;20256;-33
2023/05/21 03:12:40;;;;;;;3.97;3.50;;;15.60;97.00;;;;;;4989134;28;20206;-33
2023/05/21 03:15:13;;;;;;;5.25;3.47;;;15.60;97.10;;;;;;5000422;28;20237;-33
2023/05/21 03:17:41;;;;;;;3.85;3.53;;;15.60;97.00;;;;;;4986038;28;20363;-32
2023/05/21 03:20:17;;;;;;;4.35;3.10;;;15.60;97.10;;;;;;4989522;28;20219;-33
2023/05/21 03:22:49;;;;;;;3.63;3.30;;;15.60;97.20;;;;;;4985355;28;20521;-32
2023/05/21 03:25:16;;;;;;;6.18;4.45;;;15.50;97.30;;;;;;4986909;28;20409;-32
2023/05/21 03:27:49;;;;;;;6.13;3.90;;;15.50;97.20;;;;;;4984866;28;20224;-33
2023/05/21 03:30:19;;;;;;;3.97;3.45;;;15.50;97.20;;;;;;4989278;28;20194;-33
2023/05/21 03:32:48;;;;;;;3.50;3.17;;;15.50;97.20;;;;;;4984515;28;20213;-33
2023/05/21 03:35:18;;;;;;;5.00;3.75;;;15.40;97.10;;;;;;4986797;28;20209;-33
2023/05/21 03:37:47;;;;;;;3.88;3.40;;;15.40;97.10;;;;;;4969082;28;20749;-33
2023/05/21 03:40:15;;;;;;;4.22;3.45;;;15.40;97.10;;;;;;4989559;28;20239;-33
2023/05/21 03:42:42;;;;;;;4.78;3.78;;;15.40;97.00;;;;;;4994235;28;20220;-33
2023/05/21 03:45:12;;;;;;;5.00;3.53;;;15.30;97.10;;;;;;4986216;28;20234;-33
2023/05/21 03:47:41;;;;;;;5.47;4.18;;;15.30;97.20;;;;;;4987575;28;20257;-33
2023/05/21 03:50:11;;;;;;;5.68;3.97;;;15.30;97.40;;;;;;5004117;28;20270;-33
2023/05/21 03:52:41;;;;;;;6.45;3.50;;;15.30;97.30;;;;;;5003657;28;20206;-33
2023/05/21 03:55:11;;;;;;;4.28;3.70;;;15.20;97.30;;;;;;4989465;28;20229;-33
2023/05/21 03:57:41;;;;;;;4.63;3.90;;;15.20;97.30;;;;;;5001191;28;20277;-33
2023/05/21 04:00:10;;;;;;;4.40;4.00;;;15.20;97.30;;;;;;4983523;28;20213;-33
2023/05/21 04:02:38;;;;;;;5.40;4.03;;;15.20;97.20;;;;;;4985986;28;20213;-33
2023/05/21 04:05:05;;;;;;;4.60;4.00;;;15.20;97.40;;;;;;4984028;28;20218;-33
2023/05/21 04:07:33;;;;;;;4.25;3.75;;;15.20;97.30;;;;;;4985734;28;20208;-33
2023/05/21 04:10:05;;;;;;;5.53;4.35;;;15.10;97.40;;;;;;4984123;28;20198;-33
2023/05/21 04:12:34;;;;;;;5.07;4.13;;;15.20;97.50;;;;;;4984894;28;20292;-33
2023/05/21 04:15:02;;;;;;;4.65;4.00;;;15.10;97.50;;;;;;4986149;28;20218;-33
2023/05/21 04:17:29;;;;;;;5.90;4.13;;;15.10;97.60;;;;;;4985328;28;20210;-33
2023/05/21 04:20:02;;;;;;;5.07;4.30;;;15.10;97.90;;;;;;4982788;28;20222;-33
2023/05/21 04:22:29;;;;;;;5.10;3.83;;;15.10;97.50;;;;;;4998862;28;20751;-33
2023/05/21 04:24:58;;;;;;;5.00;4.47;;;15.00;97.40;;;;;;4983008;28;20313;-33
2023/05/21 04:27:25;;;;;;;7.03;4.70;;;15.10;97.50;;;;;;4993345;28;20237;-33
2023/05/21 04:29:57;;;;;;;4.57;3.67;;;15.10;97.70;;;;;;4988999;28;20657;-33
2023/05/21 04:32:24;;;;;;;7.30;4.82;;;15.10;97.70;;;;;;4985660;28;20203;-33
2023/05/21 04:34:51;;;;;;;5.40;4.63;;;15.10;97.60;;;;;;4986283;28;20213;-33
2023/05/21 04:37:19;;;;;;;5.68;4.75;;;15.10;97.70;;;;;;4989338;28;20530;-33
2023/05/21 04:39:49;;;;;;;4.72;4.28;;;15.10;97.60;;;;;;5000493;28;20611;-33
2023/05/21 04:42:18;;;;;;;4.60;4.10;;;15.10;97.70;;;;;;5003508;28;20546;-33
2023/05/21 04:44:48;;;;;;;7.18;5.05;;;15.10;97.70;;;;;;4989535;28;20593;-34
2023/05/21 04:47:17;;;;;;;5.90;4.50;;;15.20;97.80;;;;;;4978990;28;20640;-33
2023/05/21 04:49:45;;;;;;;4.82;4.38;;;15.10;97.80;;;;;;4984757;28;20210;-33
2023/05/21 04:52:12;;;;;;;5.22;4.60;;;15.20;97.80;;;;;;4985454;28;20213;-33
2023/05/21 04:54:40;;;;;;;5.43;4.65;;;15.20;97.70;;;;;;4983306;28;20712;-33
2023/05/21 04:57:08;;;;;;;5.35;4.85;;;15.20;97.90;;;;;;4973767;28;20248;-33
2023/05/21 04:59:35;;;;;;;5.45;4.70;;;15.20;97.90;;;;;;4986372;28;20400;-33
2023/05/21 05:02:09;;;;;;;4.95;4.45;;;15.20;98.00;;;;;;4996906;28;20211;-33
2023/05/21 05:04:37;;;;;;;6.13;4.88;;;15.30;98.00;;;;;;5000283;28;20221;-33
2023/05/21 05:07:04;;;;;;;6.40;4.78;;;15.30;97.90;;;;;;4988222;28;20715;-33
2023/05/21 05:09:34;;;;;;;5.10;4.47;;;15.40;98.00;;;;;;4986271;28;20202;-33
2023/05/21 05:12:03;;;;;;;5.00;4.35;;;15.40;98.10;;;;;;5001199;28;20659;-33
2023/05/21 05:14:30;;;;;;;5.28;4.78;;;15.40;98.10;;;;;;5011558;28;20240;-33
2023/05/21 05:17:00;;;;;;;5.32;4.45;;;15.40;98.10;;;;;;4998314;28;20213;-33
2023/05/21 05:19:30;;;;;;;5.72;4.55;;;15.50;98.60;;;;;;4997059;28;20213;-33
2023/05/21 05:22:00;;;;;;;6.40;4.95;;;15.50;98.20;;;;;;5000020;28;20257;-34
2023/05/21 05:24:30;;;;;;;5.55;4.65;;;15.50;98.20;;;;;;4991315;28;20337;-33
2023/05/21 05:26:57;;;;;;;5.67;5.07;;;15.60;98.20;;;;;;4983292;28;20752;-34
2023/05/21 05:29:26;;;;;;;6.00;5.40;;;15.60;98.20;;;;;;4991948;28;20537;-33
2023/05/21 05:31:56;;;;;;;5.55;5.05;;;15.60;98.40;;;;;;4995947;28;20248;-33
2023/05/21 05:34:23;;;;;;;9.13;4.93;;;15.70;98.30;;;;;;4996307;28;20317;-33
2023/05/21 05:36:52;;;;;;;5.28;4.60;;;15.70;98.60;;;;;;4984469;28;20217;-33
2023/05/21 05:39:20;;;;;;;5.32;4.82;;;15.70;98.30;;;;;;4983324;28;20226;-33
2023/05/21 05:41:52;;;;;;;6.10;5.50;;;15.70;98.40;;;;;;4982802;28;20210;-33
2023/05/21 05:44:21;;;;;;;5.82;4.85;;;15.70;98.60;;;;;;4984280;28;20218;-33
2023/05/21 05:46:49;;;;;;;7.00;5.10;;;15.70;98.60;;;;;;4995111;28;20205;-33
2023/05/21 05:49:16;;;;;;;5.57;5.07;;;15.80;98.40;;;;;;4996291;28;20326;-33
2023/05/21 05:51:43;;;;;;;5.75;4.93;;;15.80;98.50;;;;;;4984252;28;20806;-33
2023/05/21 05:54:13;;;;;;;6.85;5.40;;;15.90;98.70;;;;;;4978394;28;20228;-33
2023/05/21 05:56:42;;;;;;;5.13;4.68;;;15.90;98.80;;;;;;4991905;28;20264;-33
2023/05/21 05:59:10;;;;;;;6.10;4.65;;;15.90;98.80;;;;;;4987005;28;20198;-33
2023/05/21 06:01:41;;;;;;;7.93;5.30;;;16.00;98.80;;;;;;4981829;28;20203;-33
2023/05/21 06:04:10;;;;;;;6.63;5.18;;;16.00;98.90;;;;;;4982719;28;20207;-34
2023/05/21 06:06:40;;;;;;;5.70;5.20;;;16.10;99.00;;;;;;4982283;28;21103;-34
2023/05/21 06:09:15;;;;;;;6.28;5.63;;;16.10;98.90;;;;;;4984179;28;20233;-34
2023/05/21 06:11:49;;;;;;;6.20;5.10;;;16.20;98.90;;;;;;5000796;28;20228;-34
2023/05/21 06:14:21;;;;;;;5.60;4.85;;;16.20;99.00;;;;;;4999170;28;20209;-34
2023/05/21 06:16:51;;;;;;;6.03;5.43;;;16.20;98.90;;;;;;5000667;28;20228;-34
2023/05/21 06:19:18;;;;;;;6.78;5.00;;;16.30;99.30;;;;;;5002306;28;20209;-34
2023/05/21 06:21:46;;;;;;;6.82;5.43;;;16.30;99.00;;;;;;4999743;28;20523;-34
2023/05/21 06:24:15;;;;;;;5.40;4.90;;;16.40;99.10;;;;;;5003669;28;20197;-34
2023/05/21 06:26:42;;;;;;;5.90;5.25;;;16.40;99.20;;;;;;4993715;28;20603;-34
2023/05/21 06:29:12;;;;;;;5.97;5.38;;;16.40;99.30;;;;;;4988116;28;20209;-34
2023/05/21 06:31:44;;;;;;;8.02;5.43;;;16.40;99.20;;;;;;4993662;28;20213;-34
2023/05/21 06:34:11;;;;;;;6.20;5.60;;;16.50;99.50;;;;;;5001467;28;20509;-36
2023/05/21 06:36:41;;;;;;;6.55;5.50;;;16.50;99.30;;;;;;4979708;28;20695;-34
2023/05/21 06:39:11;;;;;;;6.10;5.30;;;16.50;99.70;;;;;;4981122;28;20232;-33
2023/05/21 06:41:43;;;;;;;6.40;5.40;;;16.50;99.70;;;;;;4981739;28;20647;-33
2023/05/21 06:44:14;;;;;;;6.13;5.53;;;16.50;99.80;;;;;;4985566;28;20365;-34
2023/05/21 06:46:44;;;;;;;7.28;5.75;;;16.60;99.80;;;;;;4984404;28;20288;-33
2023/05/21 06:49:13;;;;;;;6.03;5.40;;;16.60;99.80;;;;;;4992093;28;20206;-34
2023/05/21 06:51:41;;;;;;;5.90;5.30;;;16.70;99.90;;;;;;4965544;28;20262;-33
2023/05/21 06:54:11;;;;;;;8.23;5.18;;;16.70;99.70;;;;;;4987058;28;20590;-33
2023/05/21 06:56:39;;;;;;;7.32;5.75;;;16.80;99.80;;;;;;4994771;28;20575;-33
2023/05/21 06:59:09;;;;;;;7.85;5.60;;;16.80;99.90;;;;;;4980166;28;20213;-34
2023/05/21 07:01:36;;;;;;;8.20;5.88;;;16.80;99.90;;;;;;4981484;28;20214;-34
2023/05/21 07:04:04;;;;;;;5.50;4.97;;;16.90;99.90;;;;;;4983380;28;20913;-33
2023/05/21 07:06:34;;;;;;;5.60;5.10;;;16.90;99.90;;;;;;4983142;28;20222;-33
2023/05/21 07:09:02;;;;;;;9.25;5.20;;;17.00;99.90;;;;;;4999385;28;20249;-33
2023/05/21 07:11:29;;;;;;;6.60;5.80;;;17.10;99.90;;;;;;4992618;28;20684;-33
2023/05/21 07:14:00;;;;;;;6.07;5.45;;;17.20;99.90;;;;;;4990785;28;20241;-33
2023/05/21 07:16:27;;;;;;;6.00;5.50;;;17.30;99.90;;;;;;4994658;28;20210;-33
2023/05/21 07:18:55;;;;;;;5.95;5.35;;;17.40;99.90;;;;;;4980670;28;20317;-33
2023/05/21 07:21:22;;;;;;;6.90;6.20;;;17.40;99.90;;;;;;4983216;28;20205;-33
2023/05/21 07:23:52;;;;;;;5.90;5.22;;;17.50;99.90;;;;;;4994598;28;20216;-34
2023/05/21 07:26:25;;;;;;;7.72;5.90;;;17.60;99.90;;;;;;4998927;28;20221;-34
2023/05/21 07:28:52;;;;;;;8.48;6.47;;;17.70;99.90;;;;;;4984768;28;20978;-33
2023/05/21 07:31:24;;;;;;;6.40;5.80;;;17.80;99.90;;;;;;4987147;28;20237;-33
2023/05/21 07:33:54;;;;;;;6.28;5.60;;;17.90;99.90;;;;;;5003103;28;20205;-34
2023/05/21 07:36:26;;;;;;;7.28;6.35;;;17.90;99.90;;;;;;5002977;28;20953;-34
2023/05/21 07:38:53;;;;;;;11.60;6.43;;;17.90;99.90;;;;;;4996388;28;20236;-33
2023/05/21 07:41:21;;;;;;;6.90;6.22;;;18.00;99.90;;;;;;4986169;28;20206;-34
2023/05/21 07:43:53;;;;;;;6.78;6.07;;;18.00;99.90;;;;;;4994073;28;20214;-34
2023/05/21 07:46:22;;;;;;;6.20;5.55;;;18.00;99.90;;;;;;4983019;28;20238;-33
2023/05/21 07:48:53;;;;;;;6.97;6.28;;;18.00;99.90;;;;;;4995969;28;20206;-34
2023/05/21 07:51:20;;;;;;;9.90;6.80;;;18.10;99.90;;;;;;4994895;28;20269;-33
2023/05/21 07:53:50;;;;;;;7.35;6.47;;;18.10;99.90;;;;;;4993396;28;20210;-33
2023/05/21 07:56:25;;;;;;;6.45;5.85;;;18.20;99.90;;;;;;4996405;28;21689;-33
2023/05/21 07:58:55;;;;;;;7.45;6.65;;;18.30;99.90;;;;;;4987678;28;20206;-34
2023/05/21 08:01:28;;;;;;;8.43;6.10;;;18.30;99.90;;;;;;4982418;28;20616;-33
2023/05/21 08:03:59;;;;;;;8.90;5.15;;;18.40;99.90;;;;;;4970749;28;20215;-34
2023/05/21 08:06:26;;;;;;;7.90;6.35;;;18.50;99.90;;;;;;4990109;28;20704;-34
2023/05/21 08:08:54;;;;;;;6.78;6.13;;;18.50;99.90;;;;;;4973202;28;20598;-34
2023/05/21 08:11:26;;;;;;;7.80;7.00;;;18.60;99.90;;;;;;4989884;28;20664;-34
2023/05/21 08:13:56;;;;;;;6.82;6.13;;;18.60;99.90;;;;;;4991209;28;20297;-34
2023/05/21 08:16:23;;;;;;;7.38;6.45;;;18.70;99.90;;;;;;4989742;28;20214;-34
2023/05/21 08:18:50;;;;;;;7.03;6.30;;;18.80;99.90;;;;;;4989894;28;20254;-34
2023/05/21 08:21:18;;;;;;;7.82;6.40;;;18.80;99.90;;;;;;4986877;28;20236;-34
2023/05/21 08:23:50;;;;;;;7.25;5.93;;;18.90;99.90;;;;;;4995896;28;20300;-33
2023/05/21 08:26:18;;;;;;;7.07;6.38;;;19.00;99.90;;;;;;4983176;28;20230;-34
2023/05/21 08:28:45;;;;;;;8.20;6.57;;;19.00;99.90;;;;;;4993551;28;20209;-34
2023/05/21 08:31:15;;;;;;;8.23;7.38;;;19.10;99.90;;;;;;4991988;28;20565;-34
2023/05/21 08:33:52;;;;;;;8.27;7.00;;;19.20;99.90;;;;;;4991366;28;20314;-34
2023/05/21 08:36:22;;;;;;;9.68;8.07;;;19.20;99.90;;;;;;5003656;28;20457;-34
2023/05/21 08:38:52;;;;;;;7.57;6.55;;;19.20;99.90;;;;;;5000997;28;20858;-34
2023/05/21 08:41:23;;;;;;;7.72;6.95;;;19.30;99.90;;;;;;4985525;28;20210;-37
2023/05/21 08:43:59;;;;;;;8.40;7.53;;;19.30;99.90;;;;;;4988333;28;20252;-34
2023/05/21 08:46:34;;;;;;;8.27;7.10;;;19.30;99.90;;;;;;5003065;28;20222;-34
2023/05/21 08:49:11;;;;;;;9.15;7.82;;;19.30;99.90;;;;;;4990870;28;20232;-34
2023/05/21 08:51:41;;;;;;;8.50;7.60;;;19.30;99.90;;;;;;4992152;28;20218;-34
2023/05/21 08:54:12;;;;;;;8.55;7.43;;;19.30;99.90;;;;;;5001876;28;20218;-34
2023/05/21 08:56:45;;;;;;;10.18;7.68;;;19.40;99.90;;;;;;5003400;28;20956;-33
2023/05/21 08:59:17;;;;;;;8.85;7.60;;;19.40;99.90;;;;;;4995018;28;20213;-34
2023/05/21 09:01:44;;;;;;;10.73;7.88;;;19.40;99.90;;;;;;4985376;28;20218;-34
2023/05/21 09:04:15;;;;;;;9.32;8.25;;;19.40;99.90;;;;;;5000071;28;20634;-34
2023/05/21 09:06:50;;;;;;;12.48;8.98;;;19.50;99.90;;;;;;4990669;28;20304;-34
2023/05/21 09:10:11;;;;;;;8.85;7.70;;;19.40;99.90;;;;;;4975100;28;20686;-34
2023/05/21 09:12:40;;;;;;;8.35;7.35;;;19.50;99.90;;;;;;4983951;28;20232;-34
2023/05/21 09:15:08;;;;;;;10.80;8.63;;;19.50;99.90;;;;;;4996770;28;20201;-34
2023/05/21 09:17:35;;;;;;;14.30;9.35;;;19.60;99.90;;;;;;4991632;28;20229;-33
2023/05/21 09:20:14;;;;;;;9.32;8.23;;;19.60;99.90;;;;;;5002783;28;20229;-33
2023/05/21 09:22:48;;;;;;;12.05;9.38;;;19.60;99.90;;;;;;4997249;28;20215;-33
2023/05/21 09:25:24;;;;;;;10.02;9.00;;;19.60;99.90;;;;;;5001569;28;20308;-33
2023/05/21 09:27:57;;;;;;;10.30;8.55;;;19.60;99.90;;;;;;4997962;28;20622;-33
2023/05/21 09:30:26;;;;;;;10.38;9.38;;;19.60;99.90;;;;;;4991791;28;20218;-33
2023/05/21 09:32:59;;;;;;;12.20;9.82;;;19.60;99.90;;;;;;4994729;28;20728;-33
2023/05/21 09:35:26;;;;;;;10.32;9.05;;;19.60;99.90;;;;;;4999402;28;20454;-33
2023/05/21 09:37:56;;;;;;;14.02;10.23;;;19.70;99.90;;;;;;4993118;28;20279;-33
2023/05/21 09:40:26;;;;;;;11.65;9.38;;;19.80;99.90;;;;;;4982044;28;20553;-33
2023/05/21 09:42:59;;;;;;;11.13;9.07;;;19.70;99.90;;;;;;4980420;28;20260;-33
2023/05/21 09:45:29;;;;;;;12.52;10.02;;;19.80;99.90;;;;;;4981819;28;20219;-33
2023/05/21 09:48:01;;;;;;;9.75;8.82;;;19.80;99.90;;;;;;4984921;28;20198;-33
2023/05/21 09:50:31;;;;;;;9.88;8.88;;;19.80;99.90;;;;;;4991845;28;20236;-33
2023/05/21 09:53:02;;;;;;;8.77;7.88;;;19.90;99.90;;;;;;5001246;28;20216;-33
2023/05/21 09:55:30;;;;;;;10.27;9.07;;;20.00;99.90;;;;;;4985499;28;20564;-33
2023/05/21 09:57:57;;;;;;;14.40;10.35;;;20.10;99.90;;;;;;4980984;28;20238;-33
2023/05/21 10:00:31;;;;;;;10.60;9.60;;;20.20;99.90;;;;;;4997741;28;20206;-33
2023/05/21 10:03:03;;;;;;;12.30;10.23;;;20.20;99.90;;;;;;4987549;28;20666;-33
2023/05/21 10:05:35;;;;;;;10.63;9.52;;;20.20;99.90;;;;;;4984224;28;20293;-33
2023/05/21 10:08:03;;;;;;;10.73;8.93;;;20.20;99.90;;;;;;4987577;28;20220;-33
2023/05/21 10:10:31;;;;;;;9.98;7.72;;;20.30;99.90;;;;;;4983149;28;20206;-33
2023/05/21 10:13:08;;;;;;;12.27;11.00;;;20.40;99.90;;;;;;4992873;28;20213;-33
2023/05/21 10:15:41;;;;;;;11.02;9.85;;;20.50;99.90;;;;;;4985748;28;20311;-33
2023/05/21 10:18:12;;;;;;;11.75;9.43;;;20.50;99.90;;;;;;4999489;28;20213;-33
2023/05/21 10:20:43;;;;;;;13.32;9.77;;;20.60;99.90;;;;;;4990527;28;20260;-33
2023/05/21 10:23:12;;;;;;;15.02;10.23;;;20.70;99.90;;;;;;4987980;28;20209;-33
2023/05/21 10:25:40;;;;;;;9.30;8.02;;;20.80;99.90;;;;;;4976929;28;20725;-33
2023/05/21 10:28:09;;;;;;;12.82;8.60;;;20.90;99.90;;;;;;4991614;28;20210;-33
2023/05/21 10:30:37;;;;;;;10.57;8.45;;;21.00;99.90;;;;;;4982635;28;20218;-33
2023/05/21 10:33:08;;;;;;;10.80;9.70;;;21.10;99.90;;;;;;4998199;28;20304;-33
2023/05/21 10:35:39;;;;;;;12.93;10.63;;;21.10;99.90;;;;;;4993272;28;20225;-33
2023/05/21 10:38:09;;;;;;;11.60;10.38;;;21.10;99.90;;;;;;4983389;28;20284;-33
2023/05/21 10:40:39;;;;;;;12.63;10.65;;;21.20;99.90;;;;;;4999738;28;20216;-34
2023/05/21 10:43:30;;;;;;;10.60;9.45;;;21.10;99.90;;;;;;4982276;28;20375;-34
2023/05/21 10:46:12;;;;;;;15.68;11.88;;;21.20;99.90;;;;;;4986866;28;20228;-34
2023/05/21 10:49:09;;;;;;;15.07;10.73;;;21.20;99.90;;;;;;5000549;28;20233;-34
2023/05/21 10:51:40;;;;;;;11.80;10.45;;;21.30;99.90;;;;;;4983389;28;20201;-34
2023/05/21 10:54:45;;;;;;;11.10;9.93;;;21.30;99.90;;;;;;5002430;28;20644;-34
2023/05/21 10:57:32;;;;;;;13.90;11.95;;;21.30;99.90;;;;;;4986317;28;20336;-34
2023/05/21 11:00:01;;;;;;;14.35;12.90;;;21.40;99.90;;;;;;4986784;28;20213;-34
2023/05/21 11:02:30;;;;;;;12.23;10.93;;;21.40;99.90;;;;;;4995666;28;20581;-34
2023/05/21 11:05:05;;;;;;;15.98;11.68;;;21.40;99.90;;;;;;4985882;28;20214;-36
2023/05/21 11:07:52;;;;;;;15.80;11.65;;;21.50;99.90;;;;;;4986115;28;20241;-34
2023/05/21 11:10:44;;;;;;;13.82;11.70;;;21.60;99.90;;;;;;4986087;28;20217;-34
2023/05/21 11:13:18;;;;;;;13.35;10.23;;;21.60;99.90;;;;;;4984603;28;20846;-34
2023/05/21 11:15:57;;;;;;;12.77;11.48;;;21.70;99.90;;;;;;4993345;28;20203;-34
2023/05/21 11:18:34;;;;;;;14.90;13.27;;;21.80;99.90;;;;;;4984325;28;20205;-34
2023/05/21 11:21:08;;;;;;;14.98;12.95;;;21.90;99.90;;;;;;4985822;28;20217;-34
2023/05/21 11:23:57;;;;;;;17.52;12.32;;;21.90;99.90;;;;;;4991413;28;20563;-34
2023/05/21 11:26:27;;;;;;;13.73;11.88;;;21.90;99.90;;;;;;4986267;28;20222;-34
2023/05/21 11:29:03;;;;;;;15.20;12.68;;;21.90;99.90;;;;;;4997658;28;20288;-34
2023/05/21 11:31:37;;;;;;;13.85;12.32;;;22.00;99.90;;;;;;4996476;28;20656;-34
2023/05/21 11:34:27;;;;;;;13.88;12.13;;;22.00;99.90;;;;;;5005121;28;20205;-34
2023/05/21 11:37:26;;;;;;;14.35;12.85;;;22.10;99.90;;;;;;5005535;28;20251;-34
2023/05/21 11:39:57;;;;;;;11.63;10.43;;;22.20;99.90;;;;;;5003497;28;20683;-34
2023/05/21 11:42:38;;;;;;;13.40;11.50;;;22.30;99.90;;;;;;4989007;28;20210;-34
2023/05/21 11:45:08;;;;;;;11.35;10.25;;;22.40;99.90;;;;;;4968875;28;20829;-34
2023/05/21 11:47:36;;;;;;;13.98;12.55;;;22.40;99.90;;;;;;4985045;28;20230;-34
2023/05/21 11:50:03;;;;;;;11.85;10.65;;;22.40;99.90;;;;;;4986259;28;20274;-34
2023/05/21 11:52:33;;;;;;;14.85;11.50;;;22.50;99.90;;;;;;4986049;28;21017;-34
2023/05/21 11:55:03;;;;;;;12.40;11.15;;;22.60;99.90;;;;;;4983881;28;20214;-35
2023/05/21 11:57:33;;;;;;;16.05;12.82;;;22.60;99.90;;;;;;4983675;28;20249;-34
2023/05/21 12:00:13;;;;;;;12.93;11.55;;;22.70;99.90;;;;;;4973389;28;20908;-33
2023/05/21 12:02:54;;;;;;;13.60;12.20;;;22.70;99.90;;;;;;4985832;28;20217;-34
2023/05/21 12:05:22;;;;;;;15.23;12.20;;;22.80;99.90;;;;;;4985520;28;20716;-34
2023/05/21 12:07:53;;;;;;;13.25;11.15;;;22.80;99.90;;;;;;4984297;28;20233;-33
2023/05/21 12:10:21;;;;;;;11.07;9.57;;;22.80;99.90;;;;;;4983152;28;20238;-34
2023/05/21 12:12:49;;;;;;;13.93;11.23;;;22.90;99.90;;;;;;4985306;28;20210;-34
2023/05/21 12:15:24;;;;;;;13.73;11.50;;;23.00;99.90;;;;;;4982615;28;20692;-33
2023/05/21 12:17:57;;;;;;;15.23;13.45;;;23.00;99.90;;;;;;5002228;28;20214;-33
2023/05/21 12:20:27;;;;;;;15.50;13.32;;;23.10;99.90;;;;;;4991190;28;20262;-35
2023/05/21 12:22:58;;;;;;;12.18;10.88;;;23.10;99.90;;;;;;4988355;28;20226;-35
2023/05/21 12:25:28;;;;;;;16.00;12.52;;;23.10;99.90;;;;;;5001116;28;20192;-35
2023/05/21 12:28:00;;;;;;;15.15;13.55;;;23.20;99.90;;;;;;5000388;28;20415;-35
2023/05/21 12:30:28;;;;;;;11.55;10.35;;;23.10;99.90;;;;;;5002298;28;20241;-34
2023/05/21 12:32:57;;;;;;;13.48;11.90;;;23.20;99.90;;;;;;4967737;28;20417;-33
2023/05/21 12:35:29;;;;;;;13.52;12.13;;;23.30;99.90;;;;;;4983580;28;20202;-33
2023/05/21 12:37:59;;;;;;;14.40;11.77;;;23.30;99.90;;;;;;4982500;28;20224;-36
2023/05/21 12:40:36;;;;;;;13.80;12.38;;;23.40;99.90;;;;;;4988200;28;20762;-33
2023/05/21 12:43:08;;;;;;;16.52;13.98;;;23.50;99.90;;;;;;4988952;28;20206;-34
2023/05/21 12:45:38;;;;;;;12.70;10.52;;;23.50;99.90;;;;;;5004256;28;20570;-34
2023/05/21 12:48:08;;;;;;;13.38;12.07;;;23.50;99.90;;;;;;4966906;28;20238;-34
2023/05/21 12:50:39;;;;;;;14.18;12.70;;;23.60;99.90;;;;;;4984059;28;20222;-34
2023/05/21 12:53:10;;;;;;;13.57;12.02;;;23.50;99.90;;;;;;4985027;28;20276;-34
2023/05/21 12:55:39;;;;;;;15.27;13.13;;;23.60;99.90;;;;;;5001085;28;20251;-34
2023/05/21 12:58:07;;;;;;;14.63;12.15;;;23.60;99.90;;;;;;5000122;28;20249;-34
2023/05/21 13:00:35;;;;;;;13.43;12.05;;;23.60;99.90;;;;;;4987029;28;20620;-34